createdAt,value
2024-03-11T00:03:42.469Z,98412.88
2024-03-11T00:07:44.321Z,98412.66
2024-03-11T00:11:46.163Z,98414.56
2024-03-11T00:15:47.872Z,98412.50
2024-03-11T00:19:50.945Z,98413.44
2024-03-11T00:23:52.588Z,98415.00
2024-03-11T00:27:54.281Z,98410.56
2024-03-11T00:31:55.968Z,98406.16
2024-03-11T00:35:59.052Z,98412.72
2024-03-11T00:40:01.219Z,98412.00
2024-03-11T00:44:02.879Z,98405.38
2024-03-11T00:48:05.438Z,98413.31
2024-03-11T00:52:08.472Z,98424.06
2024-03-11T00:56:10.240Z,98419.97
2024-03-11T01:00:13.452Z,98422.38
2024-03-11T01:04:15.762Z,98429.75
2024-03-11T01:08:19.634Z,98434.19
2024-03-11T01:12:22.085Z,98437.84
2024-03-11T01:16:23.989Z,98428.03
2024-03-11T01:20:25.773Z,98427.53
2024-03-11T01:24:29.007Z,98434.19
2024-03-11T01:28:30.695Z,98433.03
2024-03-11T01:32:32.618Z,98435.66
2024-03-11T01:36:34.411Z,98431.81
2024-03-11T01:40:37.489Z,98447.00
2024-03-11T01:44:39.099Z,98438.00
2024-03-11T01:48:40.878Z,98444.63
2024-03-11T01:52:47.104Z,98440.22
2024-03-11T01:56:50.030Z,98441.84
2024-03-11T02:00:51.748Z,98437.50
2024-03-11T02:04:53.588Z,98425.81
2024-03-11T02:08:55.346Z,98424.38
2024-03-11T02:12:58.709Z,98433.25
2024-03-11T02:17:01.245Z,98438.22
2024-03-11T02:21:03.352Z,98439.59
2024-03-11T02:25:06.977Z,98440.38
2024-03-11T02:29:08.584Z,98443.47
2024-03-11T02:33:10.372Z,98435.44
2024-03-11T02:37:12.151Z,98442.47
2024-03-11T02:41:15.355Z,98441.50
2024-03-11T02:45:17.307Z,98434.88
2024-03-11T02:49:20.249Z,98444.34
2024-03-11T02:53:21.896Z,98438.28
2024-03-11T02:57:24.977Z,98440.56
2024-03-11T03:01:26.600Z,98435.16
2024-03-11T03:05:28.276Z,98441.06
2024-03-11T03:09:29.920Z,98441.03
2024-03-11T03:13:32.987Z,98435.03
2024-03-11T03:17:35.232Z,98436.38
2024-03-11T03:21:37.062Z,98443.50
2024-03-11T03:25:38.819Z,98444.81
2024-03-11T03:29:41.918Z,98445.03
2024-03-11T03:33:43.583Z,98437.69
2024-03-11T03:37:45.239Z,98439.84
2024-03-11T03:41:47.087Z,98442.97
2024-03-11T03:45:50.026Z,98437.66
2024-03-11T03:49:51.594Z,98445.34
2024-03-11T03:53:53.718Z,98437.16
2024-03-11T03:57:55.994Z,98435.97
2024-03-11T04:01:59.960Z,98434.63
2024-03-11T04:06:01.653Z,98442.53
2024-03-11T04:10:03.853Z,98440.28
2024-03-11T04:14:05.495Z,98444.09
2024-03-11T04:18:08.509Z,98454.38
2024-03-11T04:22:10.238Z,98463.00
2024-03-11T04:26:12.167Z,98462.13
2024-03-11T04:30:14.129Z,98464.00
2024-03-11T04:34:17.268Z,98469.94
2024-03-11T04:38:19.082Z,98474.41
2024-03-11T04:42:21.045Z,98485.75
2024-03-11T04:46:22.662Z,98484.75
2024-03-11T04:50:26.689Z,98490.41
2024-03-11T04:54:28.657Z,98486.59
2024-03-11T04:58:30.366Z,98487.31
2024-03-11T05:02:32.205Z,98492.94
2024-03-11T05:06:36.556Z,98492.53
2024-03-11T05:10:38.181Z,98487.47
2024-03-11T05:14:39.908Z,98495.66
2024-03-11T05:18:41.635Z,98492.41
2024-03-11T05:22:46.288Z,98498.03
2024-03-11T05:26:47.922Z,98491.44
2024-03-11T05:30:49.639Z,98488.94
2024-03-11T05:34:51.810Z,98493.47
2024-03-11T05:38:54.846Z,98496.19
2024-03-11T05:42:56.802Z,98497.94
2024-03-11T05:46:58.526Z,98500.19
2024-03-11T05:51:01.230Z,98499.78
2024-03-11T05:55:07.259Z,98505.72
2024-03-11T05:59:09.071Z,98514.47
2024-03-11T06:03:10.832Z,98503.88
2024-03-11T06:07:12.821Z,98511.75
2024-03-11T06:11:16.467Z,98512.19
2024-03-11T06:15:19.797Z,98524.81
2024-03-11T06:19:21.489Z,98533.38
2024-03-11T06:23:23.403Z,98513.50
2024-03-11T06:27:26.462Z,98533.63
2024-03-11T06:31:28.629Z,98511.25
2024-03-11T06:35:30.592Z,98488.84
2024-03-11T06:39:33.502Z,98541.28
2024-03-11T06:43:38.134Z,98547.72
2024-03-11T06:47:39.920Z,98554.97
2024-03-11T06:51:42.782Z,98555.00
2024-03-11T06:55:44.670Z,98561.06
2024-03-11T06:59:47.750Z,98568.03
2024-03-11T07:03:49.425Z,98566.38
2024-03-11T07:07:51.404Z,98568.66
2024-03-11T07:11:53.404Z,98570.84
2024-03-11T07:15:56.765Z,98570.56
2024-03-11T07:19:58.363Z,98576.19
2024-03-11T07:23:59.939Z,98579.13
2024-03-11T07:28:01.728Z,98584.25
2024-03-11T07:32:05.462Z,98583.03
2024-03-11T07:36:07.665Z,98586.53
2024-03-11T07:40:09.854Z,98586.78
2024-03-11T07:44:11.451Z,98586.13
2024-03-11T07:48:15.904Z,98594.72
2024-03-11T07:52:17.616Z,98599.41
2024-03-11T07:56:20.504Z,98612.44
2024-03-11T08:00:23.435Z,98614.88
2024-03-11T08:04:26.531Z,98623.44
2024-03-11T08:08:28.303Z,98628.94
2024-03-11T08:12:30.371Z,98631.50
2024-03-11T08:16:32.056Z,98637.78
2024-03-11T08:20:35.315Z,98641.44
2024-03-11T08:24:38.557Z,98644.91
2024-03-11T08:28:40.695Z,98645.19
2024-03-11T08:32:42.404Z,98649.63
2024-03-11T08:36:46.497Z,98653.38
2024-03-11T08:40:48.231Z,98652.97
2024-03-11T08:44:50.483Z,98665.59
2024-03-11T08:48:52.455Z,98672.06
2024-03-11T08:52:55.595Z,98679.00
2024-03-11T08:56:58.204Z,98656.06
2024-03-11T09:00:59.877Z,98678.78
2024-03-11T09:05:01.521Z,98681.44
2024-03-11T09:09:04.921Z,98687.34
2024-03-11T09:13:06.494Z,98694.06
2024-03-11T09:17:08.358Z,98701.97
2024-03-11T09:21:10.129Z,98705.19
2024-03-11T09:25:14.216Z,98717.69
2024-03-11T09:29:15.944Z,98708.03
2024-03-11T09:33:17.807Z,98721.75
2024-03-11T09:37:20.584Z,98741.19
2024-03-11T09:41:26.157Z,98723.22
2024-03-11T09:45:30.813Z,98747.78
2024-03-11T09:49:33.393Z,98757.97
2024-03-11T09:53:36.427Z,98759.59
2024-03-11T09:57:39.604Z,98755.97
2024-03-11T10:01:41.928Z,98765.22
2024-03-11T10:05:43.973Z,98771.00
2024-03-11T10:09:45.748Z,98775.44
2024-03-11T10:13:49.101Z,98771.69
2024-03-11T10:17:51.816Z,98787.25
2024-03-11T10:22:02.612Z,98784.53
2024-03-11T10:26:08.677Z,98787.47
2024-03-11T10:30:22.815Z,98793.28
2024-03-11T10:34:24.711Z,98796.00
2024-03-11T10:38:26.412Z,98799.44
2024-03-11T10:42:29.035Z,98791.66
2024-03-11T10:46:33.241Z,98810.72
2024-03-11T10:50:36.599Z,98807.78
2024-03-11T10:54:44.431Z,98815.81
2024-03-11T10:58:54.486Z,98818.78
2024-03-11T11:03:01.233Z,98819.59
2024-03-11T11:07:04.987Z,98829.66
2024-03-11T11:11:08.017Z,98834.47
2024-03-11T11:15:11.790Z,98841.97
2024-03-11T11:19:18.567Z,98845.03
2024-03-11T11:23:27.101Z,98849.63
2024-03-11T11:27:29.017Z,98853.84
2024-03-11T11:31:30.945Z,98853.97
2024-03-11T11:35:35.188Z,98863.00
2024-03-11T11:39:36.963Z,98861.09
2024-03-11T11:43:46.223Z,98863.00
2024-03-11T11:47:48.965Z,98870.50
2024-03-11T11:51:52.214Z,98879.88
2024-03-11T11:55:55.035Z,98880.56
2024-03-11T11:59:58.148Z,98884.16
2024-03-11T12:04:07.524Z,98886.34
2024-03-11T12:08:20.527Z,98893.59
2024-03-11T12:12:27.381Z,98896.97
2024-03-11T12:16:29.130Z,98897.09
2024-03-11T12:20:30.843Z,98900.72
2024-03-11T12:24:33.931Z,98905.72
2024-03-11T12:28:35.658Z,98901.53
2024-03-11T12:32:37.328Z,98914.41
2024-03-11T12:36:41.009Z,98918.81
2024-03-11T12:40:45.970Z,98926.53
2024-03-11T12:44:54.582Z,98931.31
2024-03-11T12:48:56.466Z,98933.31
2024-03-11T12:53:01.154Z,98929.56
2024-03-11T12:57:09.099Z,98943.81
2024-03-11T13:01:11.508Z,98942.34
2024-03-11T13:05:14.690Z,98943.44
2024-03-11T13:09:19.911Z,98949.72
2024-03-11T13:13:22.908Z,98960.09
2024-03-11T13:17:24.802Z,98948.03
2024-03-11T13:21:26.612Z,98953.72
2024-03-11T13:25:28.742Z,98964.38
2024-03-11T13:29:32.009Z,98978.53
2024-03-11T13:33:33.648Z,98979.94
2024-03-11T13:37:35.294Z,98985.59
2024-03-11T13:41:37.374Z,98984.91
2024-03-11T13:45:47.666Z,98979.69
2024-03-11T13:49:49.512Z,98989.75
2024-03-11T13:53:51.233Z,98989.19
2024-03-11T13:57:53.012Z,99000.75
2024-03-11T14:01:56.384Z,99000.88
2024-03-11T14:05:58.555Z,99014.88
2024-03-11T14:10:00.722Z,99011.13
2024-03-11T14:14:02.505Z,99020.59
2024-03-11T14:18:06.302Z,99009.88
2024-03-11T14:22:08.196Z,99014.44
2024-03-11T14:26:10.100Z,99012.13
2024-03-11T14:30:13.426Z,99032.81
2024-03-11T14:34:16.480Z,99042.34
2024-03-11T14:38:18.330Z,99037.50
2024-03-11T14:42:20.372Z,99046.03
2024-03-11T14:46:22.160Z,99050.56
2024-03-11T14:50:25.173Z,99054.75
2024-03-11T14:54:27.865Z,99055.56
2024-03-11T14:58:30.368Z,99057.94
2024-03-11T15:02:32.304Z,99066.25
2024-03-11T15:06:35.547Z,99079.47
2024-03-11T15:10:37.485Z,99079.16
2024-03-11T15:14:39.362Z,99086.69
2024-03-11T15:18:40.967Z,99091.97
2024-03-11T15:22:44.302Z,99086.84
2024-03-11T15:26:47.838Z,99096.63
2024-03-11T15:30:50.142Z,99100.72
2024-03-11T15:34:51.848Z,99100.13
2024-03-11T15:38:55.467Z,99101.19
2024-03-11T15:42:57.126Z,99104.47
2024-03-11T15:46:59.045Z,99112.13
2024-03-11T15:51:00.813Z,99112.13
2024-03-11T15:55:04.356Z,99113.81
2024-03-11T15:59:06.407Z,99123.00
2024-03-11T16:03:09.279Z,99133.72
2024-03-11T16:07:11.944Z,99138.03
2024-03-11T16:11:15.217Z,99140.81
2024-03-11T16:15:17.777Z,99128.63
2024-03-11T16:19:20.424Z,99155.28
2024-03-11T16:23:22.217Z,99159.28
2024-03-11T16:27:27.790Z,99166.28
2024-03-11T16:31:30.518Z,99174.19
2024-03-11T16:35:33.011Z,99167.16
2024-03-11T16:39:35.029Z,99180.47
2024-03-11T16:43:38.207Z,99173.31
2024-03-11T16:47:40.827Z,99179.88
2024-03-11T16:51:42.688Z,99186.19
2024-03-11T16:55:44.591Z,99191.06
2024-03-11T16:59:47.615Z,99191.75
2024-03-11T17:03:49.475Z,99191.25
2024-03-11T17:07:52.424Z,99201.72
2024-03-11T17:11:54.044Z,99204.59
2024-03-11T17:15:57.265Z,99206.94
2024-03-11T17:19:59.145Z,99218.75
2024-03-11T17:24:00.785Z,99226.53
2024-03-11T17:28:04.485Z,99232.22
2024-03-11T17:32:08.479Z,99231.19
2024-03-11T17:36:10.380Z,99243.84
2024-03-11T17:40:13.059Z,99230.69
2024-03-11T17:44:14.700Z,99258.59
2024-03-11T17:48:18.975Z,99259.16
2024-03-11T17:52:21.169Z,99268.69
2024-03-11T17:56:23.159Z,99264.63
2024-03-11T18:00:26.430Z,99272.31
2024-03-11T18:04:29.522Z,99285.88
2024-03-11T18:08:31.330Z,99278.44
2024-03-11T18:12:33.300Z,99285.38
2024-03-11T18:16:35.045Z,99289.34
2024-03-11T18:20:38.847Z,99291.56
2024-03-11T18:24:40.616Z,99291.44
2024-03-11T18:28:44.883Z,99289.94
2024-03-11T18:32:48.987Z,99288.19
2024-03-11T18:36:52.041Z,99291.19
2024-03-11T18:40:53.737Z,99295.50
2024-03-11T18:44:55.401Z,99296.66
2024-03-11T18:48:57.159Z,99305.91
2024-03-11T18:53:01.791Z,99311.25
2024-03-11T18:57:04.721Z,99317.06
2024-03-11T19:01:06.630Z,99316.84
2024-03-11T19:05:08.852Z,99332.03
2024-03-11T19:09:12.238Z,99331.47
2024-03-11T19:13:13.894Z,99326.13
2024-03-11T19:17:17.347Z,99338.53
2024-03-11T19:21:19.486Z,99337.59
2024-03-11T19:25:22.933Z,99339.31
2024-03-11T19:29:24.653Z,99341.75
2024-03-11T19:33:26.431Z,99344.78
2024-03-11T19:37:53.936Z,99345.47
2024-03-11T19:42:11.125Z,99356.25
2024-03-11T19:46:42.736Z,99348.84
2024-03-11T19:51:42.464Z,99359.94
2024-03-11T19:56:21.786Z,99359.84
2024-03-11T20:01:03.658Z,99361.22
2024-03-11T20:05:48.038Z,99366.19
2024-03-11T20:10:43.479Z,99376.41
2024-03-11T20:14:49.652Z,99383.25
2024-03-11T20:19:20.493Z,99387.06
2024-03-11T20:24:10.174Z,99397.75
2024-03-11T20:28:18.644Z,99401.09
2024-03-11T20:32:30.110Z,99409.78
2024-03-11T20:36:33.632Z,99417.31
2024-03-11T20:40:35.427Z,99425.09
2024-03-11T20:44:37.165Z,99432.88
2024-03-11T20:48:39.267Z,99437.81
2024-03-11T20:52:46.415Z,99445.94
2024-03-11T20:56:49.409Z,99446.66
2024-03-11T21:00:51.370Z,99455.69
2024-03-11T21:04:53.521Z,99459.53
2024-03-11T21:08:56.782Z,99460.78
2024-03-11T21:12:59.047Z,99461.13
2024-03-11T21:17:01.034Z,99474.00
2024-03-11T21:21:02.801Z,99479.13
2024-03-11T21:25:06.790Z,99485.84
2024-03-11T21:29:08.582Z,99492.75
2024-03-11T21:33:10.282Z,99492.75
2024-03-11T21:37:11.962Z,99490.00
2024-03-11T21:41:14.936Z,99485.44
2024-03-11T21:45:16.972Z,99506.00
2024-03-11T21:49:18.654Z,99505.50
2024-03-11T21:53:20.318Z,99500.53
2024-03-11T21:57:23.667Z,99504.22
2024-03-11T22:01:25.410Z,99512.91
2024-03-11T22:05:26.978Z,99500.16
2024-03-11T22:09:28.682Z,99502.00
2024-03-11T22:13:31.642Z,99514.97
2024-03-11T22:17:33.509Z,99522.19
2024-03-11T22:21:35.243Z,99528.63
2024-03-11T22:25:37.003Z,99542.56
2024-03-11T22:29:40.135Z,99539.09
2024-03-11T22:33:41.935Z,99546.47
2024-03-11T22:37:43.732Z,99554.50
2024-03-11T22:41:45.943Z,99554.25
2024-03-11T22:45:49.265Z,99555.84
2024-03-11T22:49:51.071Z,99567.41
2024-03-11T22:53:52.740Z,99564.66
2024-03-11T22:57:54.318Z,99571.28
2024-03-11T23:01:57.688Z,99574.66
2024-03-11T23:05:59.329Z,99576.97
2024-03-11T23:10:01.083Z,99584.03
2024-03-11T23:14:02.895Z,99585.53
2024-03-11T23:18:06.509Z,99594.69
2024-03-11T23:22:08.370Z,99591.53
2024-03-11T23:26:10.460Z,99595.81
2024-03-11T23:30:13.462Z,99604.03
2024-03-11T23:34:16.516Z,99609.66
2024-03-11T23:38:18.369Z,99611.34
2024-03-11T23:42:20.157Z,99616.59
2024-03-11T23:46:21.802Z,99623.00
2024-03-11T23:50:24.813Z,99624.56
2024-03-11T23:54:26.521Z,99614.91
2024-03-11T23:58:28.787Z,99625.34
